Embajador Martini, Argentina
Current Conditions -  °F | °C
As of 6:00 AM on Saturday 29 Nov 2014 (Local Time) from SAOC Reporting Station
Scattered Clouds Scattered Clouds  
Wind Chill: 70°   Ceiling: Unl
Heat Index: 70°   Visibility: 6mi
Dew Point: 57°   Wind: 21mph
Humidity: 64%   Direction: 360°N
Pressure: 29.56"   Gusts: NA
Location:  35.39°S, 64.29°W
Report Text: SAOC 290900Z 36018KT 9999 FEW020 SCT10021/14 Q1001
Loading
Personal Weather Stations






























Interactive Weather Map New forecast layout! Learn more

10-Day Weather Forecast

Advertisements
Track Severe Weather on mobile